sensor_id;sensor_type;location;lat;lon;timestamp;noise_LAeq;noise_LA_min;noise_LA_max;noise_LA01;noise_LA95
67900;Laerm;54700;51.796;10.956;2023-11-19T00:00:30;35.20;31.96;47.12;;
67900;Laerm;54700;51.796;10.956;2023-11-19T00:02:57;51.37;31.94;68.43;;
67900;Laerm;54700;51.796;10.956;2023-11-19T00:05:25;36.31;32.59;48.35;;
67900;Laerm;54700;51.796;10.956;2023-11-19T00:07:53;36.21;32.85;44.20;;
67900;Laerm;54700;51.796;10.956;2023-11-19T00:10:20;54.11;33.79;69.68;;
67900;Laerm;54700;51.796;10.956;2023-11-19T00:12:48;44.55;36.65;55.78;;
67900;Laerm;54700;51.796;10.956;2023-11-19T00:15:16;46.63;36.49;59.48;;
67900;Laerm;54700;51.796;10.956;2023-11-19T00:17:44;54.23;36.84;70.29;;
67900;Laerm;54700;51.796;10.956;2023-11-19T00:20:12;53.19;37.08;66.26;;
67900;Laerm;54700;51.796;10.956;2023-11-19T00:22:40;56.56;39.65;72.84;;
67900;Laerm;54700;51.796;10.956;2023-11-19T00:25:08;48.28;39.76;59.31;;
67900;Laerm;54700;51.796;10.956;2023-11-19T00:27:35;54.84;41.50;72.25;;
67900;Laerm;54700;51.796;10.956;2023-11-19T00:30:05;47.81;39.49;58.39;;
67900;Laerm;54700;51.796;10.956;2023-11-19T00:32:32;54.80;39.40;69.75;;
67900;Laerm;54700;51.796;10.956;2023-11-19T00:34:59;45.67;38.91;61.01;;
67900;Laerm;54700;51.796;10.956;2023-11-19T00:37:26;55.80;38.57;69.49;;
67900;Laerm;54700;51.796;10.956;2023-11-19T00:39:54;45.09;38.43;58.64;;
67900;Laerm;54700;51.796;10.956;2023-11-19T00:42:22;54.16;36.62;69.88;;
67900;Laerm;54700;51.796;10.956;2023-11-19T00:44:50;55.44;36.92;72.74;;
67900;Laerm;54700;51.796;10.956;2023-11-19T00:47:17;66.72;35.06;82.80;;
67900;Laerm;54700;51.796;10.956;2023-11-19T00:49:46;39.57;32.90;49.00;;
67900;Laerm;54700;51.796;10.956;2023-11-19T00:52:14;36.05;31.95;47.37;;
67900;Laerm;54700;51.796;10.956;2023-11-19T00:54:41;34.68;30.70;42.74;;
67900;Laerm;54700;51.796;10.956;2023-11-19T00:57:10;35.29;31.84;44.86;;
67900;Laerm;54700;51.796;10.956;2023-11-19T00:59:37;35.78;30.96;51.77;;
67900;Laerm;54700;51.796;10.956;2023-11-19T01:02:04;54.75;31.67;70.28;;
67900;Laerm;54700;51.796;10.956;2023-11-19T01:04:33;48.04;35.27;63.67;;
67900;Laerm;54700;51.796;10.956;2023-11-19T01:07:01;57.05;32.42;68.47;;
67900;Laerm;54700;51.796;10.956;2023-11-19T01:09:29;35.32;31.50;59.10;;
67900;Laerm;54700;51.796;10.956;2023-11-19T01:11:57;33.36;30.35;47.53;;
67900;Laerm;54700;51.796;10.956;2023-11-19T01:14:27;32.75;29.94;44.16;;
67900;Laerm;54700;51.796;10.956;2023-11-19T01:16:54;33.21;30.19;46.46;;
67900;Laerm;54700;51.796;10.956;2023-11-19T01:19:22;34.64;30.17;48.27;;
67900;Laerm;54700;51.796;10.956;2023-11-19T01:21:50;32.10;29.81;44.79;;
67900;Laerm;54700;51.796;10.956;2023-11-19T01:24:16;50.79;29.86;66.69;;
67900;Laerm;54700;51.796;10.956;2023-11-19T01:26:44;54.39;30.38;70.74;;
67900;Laerm;54700;51.796;10.956;2023-11-19T01:29:11;32.71;30.35;44.17;;
67900;Laerm;54700;51.796;10.956;2023-11-19T01:31:40;33.55;30.58;50.78;;
67900;Laerm;54700;51.796;10.956;2023-11-19T01:34:08;37.13;30.79;54.93;;
67900;Laerm;54700;51.796;10.956;2023-11-19T01:36:34;33.13;30.78;44.15;;
67900;Laerm;54700;51.796;10.956;2023-11-19T01:39:01;34.03;31.45;45.14;;
67900;Laerm;54700;51.796;10.956;2023-11-19T01:41:33;34.42;31.73;43.96;;
67900;Laerm;54700;51.796;10.956;2023-11-19T01:44:01;50.63;32.38;66.90;;
67900;Laerm;54700;51.796;10.956;2023-11-19T01:46:29;36.83;33.49;42.57;;
67900;Laerm;54700;51.796;10.956;2023-11-19T01:49:00;40.97;34.76;50.22;;
67900;Laerm;54700;51.796;10.956;2023-11-19T01:51:28;47.49;38.53;60.59;;
67900;Laerm;54700;51.796;10.956;2023-11-19T01:53:59;53.63;37.36;69.72;;
67900;Laerm;54700;51.796;10.956;2023-11-19T01:56:27;45.97;39.83;58.65;;
67900;Laerm;54700;51.796;10.956;2023-11-19T01:58:57;43.16;39.69;50.80;;
67900;Laerm;54700;51.796;10.956;2023-11-19T02:01:24;56.72;40.37;73.63;;
67900;Laerm;54700;51.796;10.956;2023-11-19T02:03:52;53.38;40.85;67.98;;
67900;Laerm;54700;51.796;10.956;2023-11-19T02:06:23;52.21;42.86;64.10;;
67900;Laerm;54700;51.796;10.956;2023-11-19T02:08:51;48.51;42.46;56.25;;
67900;Laerm;54700;51.796;10.956;2023-11-19T02:11:18;54.27;44.24;70.48;;
67900;Laerm;54700;51.796;10.956;2023-11-19T02:13:46;58.10;47.12;71.04;;
67900;Laerm;54700;51.796;10.956;2023-11-19T02:16:13;60.22;49.15;77.82;;
67900;Laerm;54700;51.796;10.956;2023-11-19T02:18:40;58.10;49.98;72.66;;
67900;Laerm;54700;51.796;10.956;2023-11-19T02:21:11;60.34;49.31;69.88;;
67900;Laerm;54700;51.796;10.956;2023-11-19T02:23:42;58.43;48.18;68.37;;
67900;Laerm;54700;51.796;10.956;2023-11-19T02:26:14;57.66;49.29;69.78;;
67900;Laerm;54700;51.796;10.956;2023-11-19T02:28:43;57.49;47.85;76.08;;
67900;Laerm;54700;51.796;10.956;2023-11-19T02:31:11;59.38;48.51;72.61;;
67900;Laerm;54700;51.796;10.956;2023-11-19T02:33:48;57.20;48.15;68.65;;
67900;Laerm;54700;51.796;10.956;2023-11-19T02:36:16;55.65;48.41;68.59;;
67900;Laerm;54700;51.796;10.956;2023-11-19T02:38:43;57.09;48.11;76.45;;
67900;Laerm;54700;51.796;10.956;2023-11-19T02:41:13;51.86;43.77;61.87;;
67900;Laerm;54700;51.796;10.956;2023-11-19T02:43:42;53.13;45.21;64.39;;
67900;Laerm;54700;51.796;10.956;2023-11-19T02:46:10;53.88;45.25;64.20;;
67900;Laerm;54700;51.796;10.956;2023-11-19T02:48:40;55.54;44.06;67.71;;
67900;Laerm;54700;51.796;10.956;2023-11-19T02:51:08;59.28;47.93;72.80;;
67900;Laerm;54700;51.796;10.956;2023-11-19T02:53:39;52.56;46.48;62.50;;
67900;Laerm;54700;51.796;10.956;2023-11-19T02:56:07;56.37;46.05;70.42;;
67900;Laerm;54700;51.796;10.956;2023-11-19T02:58:46;56.22;50.16;66.92;;
67900;Laerm;54700;51.796;10.956;2023-11-19T03:01:21;55.00;48.22;67.26;;
67900;Laerm;54700;51.796;10.956;2023-11-19T03:03:54;54.42;48.14;68.21;;
67900;Laerm;54700;51.796;10.956;2023-11-19T03:06:22;54.95;49.29;63.39;;
67900;Laerm;54700;51.796;10.956;2023-11-19T03:08:49;57.31;50.36;68.16;;
67900;Laerm;54700;51.796;10.956;2023-11-19T03:11:16;56.07;47.90;67.79;;
67900;Laerm;54700;51.796;10.956;2023-11-19T03:13:44;58.40;46.88;74.21;;
67900;Laerm;54700;51.796;10.956;2023-11-19T03:16:13;59.25;47.56;74.66;;
67900;Laerm;54700;51.796;10.956;2023-11-19T03:18:40;56.72;49.16;68.66;;
67900;Laerm;54700;51.796;10.956;2023-11-19T03:21:10;56.35;46.61;65.31;;
67900;Laerm;54700;51.796;10.956;2023-11-19T03:23:37;55.37;46.46;65.58;;
67900;Laerm;54700;51.796;10.956;2023-11-19T03:26:05;54.20;44.87;63.55;;
67900;Laerm;54700;51.796;10.956;2023-11-19T03:28:33;54.69;46.80;66.38;;
67900;Laerm;54700;51.796;10.956;2023-11-19T03:31:01;53.53;46.17;65.72;;
67900;Laerm;54700;51.796;10.956;2023-11-19T03:33:33;59.02;46.45;71.74;;
67900;Laerm;54700;51.796;10.956;2023-11-19T03:36:00;52.77;44.88;64.57;;
67900;Laerm;54700;51.796;10.956;2023-11-19T03:38:27;50.31;42.77;59.03;;
67900;Laerm;54700;51.796;10.956;2023-11-19T03:40:54;52.92;45.75;64.58;;
67900;Laerm;54700;51.796;10.956;2023-11-19T03:43:20;57.64;46.71;70.91;;
67900;Laerm;54700;51.796;10.956;2023-11-19T03:45:47;54.30;43.93;66.00;;
67900;Laerm;54700;51.796;10.956;2023-11-19T03:48:14;56.38;43.98;70.77;;
67900;Laerm;54700;51.796;10.956;2023-11-19T03:50:44;54.01;43.80;69.48;;
67900;Laerm;54700;51.796;10.956;2023-11-19T03:53:11;55.18;48.06;68.82;;
67900;Laerm;54700;51.796;10.956;2023-11-19T03:55:39;51.39;42.60;65.20;;
67900;Laerm;54700;51.796;10.956;2023-11-19T03:58:05;55.89;45.76;67.52;;
67900;Laerm;54700;51.796;10.956;2023-11-19T04:00:32;55.94;43.68;70.69;;
67900;Laerm;54700;51.796;10.956;2023-11-19T04:02:59;50.78;41.30;60.85;;
67900;Laerm;54700;51.796;10.956;2023-11-19T04:05:26;55.58;44.07;69.78;;
67900;Laerm;54700;51.796;10.956;2023-11-19T04:07:54;51.57;43.12;69.57;;
67900;Laerm;54700;51.796;10.956;2023-11-19T04:10:24;51.89;42.45;64.74;;
67900;Laerm;54700;51.796;10.956;2023-11-19T04:12:53;55.41;41.87;69.05;;
67900;Laerm;54700;51.796;10.956;2023-11-19T04:15:19;54.85;42.80;69.89;;
67900;Laerm;54700;51.796;10.956;2023-11-19T04:17:46;56.69;40.65;68.80;;
67900;Laerm;54700;51.796;10.956;2023-11-19T04:20:14;55.57;40.83;73.40;;
67900;Laerm;54700;51.796;10.956;2023-11-19T04:22:41;54.44;43.38;68.39;;
67900;Laerm;54700;51.796;10.956;2023-11-19T04:25:10;58.28;45.28;73.72;;
67900;Laerm;54700;51.796;10.956;2023-11-19T04:27:39;56.70;45.15;68.76;;
67900;Laerm;54700;51.796;10.956;2023-11-19T04:30:07;58.61;47.95;71.09;;
67900;Laerm;54700;51.796;10.956;2023-11-19T04:32:36;56.66;44.45;69.02;;
67900;Laerm;54700;51.796;10.956;2023-11-19T04:35:03;58.24;43.44;75.03;;
67900;Laerm;54700;51.796;10.956;2023-11-19T04:37:32;56.05;43.21;68.55;;
67900;Laerm;54700;51.796;10.956;2023-11-19T04:40:00;57.52;44.60;69.61;;
67900;Laerm;54700;51.796;10.956;2023-11-19T04:42:28;53.97;41.29;71.09;;
67900;Laerm;54700;51.796;10.956;2023-11-19T04:44:55;48.47;40.84;65.34;;
67900;Laerm;54700;51.796;10.956;2023-11-19T04:47:22;54.86;40.39;68.56;;
67900;Laerm;54700;51.796;10.956;2023-11-19T04:49:49;56.42;45.80;68.68;;
67900;Laerm;54700;51.796;10.956;2023-11-19T04:52:16;59.20;46.34;71.97;;
67900;Laerm;54700;51.796;10.956;2023-11-19T04:54:44;57.00;41.64;73.99;;
67900;Laerm;54700;51.796;10.956;2023-11-19T04:57:11;52.17;40.62;65.36;;
67900;Laerm;54700;51.796;10.956;2023-11-19T04:59:39;56.93;40.88;70.68;;
67900;Laerm;54700;51.796;10.956;2023-11-19T05:02:08;50.27;41.14;60.24;;
67900;Laerm;54700;51.796;10.956;2023-11-19T05:04:35;53.00;37.92;69.36;;
67900;Laerm;54700;51.796;10.956;2023-11-19T05:07:03;51.89;41.50;69.04;;
67900;Laerm;54700;51.796;10.956;2023-11-19T05:09:31;52.58;40.10;67.89;;
67900;Laerm;54700;51.796;10.956;2023-11-19T05:11:58;46.51;40.43;60.45;;
67900;Laerm;54700;51.796;10.956;2023-11-19T05:14:25;47.18;38.43;67.91;;
67900;Laerm;54700;51.796;10.956;2023-11-19T05:16:53;41.17;33.67;53.85;;
67900;Laerm;54700;51.796;10.956;2023-11-19T05:19:20;56.03;38.82;68.92;;
67900;Laerm;54700;51.796;10.956;2023-11-19T05:21:47;46.60;37.87;58.88;;
67900;Laerm;54700;51.796;10.956;2023-11-19T05:24:18;53.59;39.32;68.73;;
67900;Laerm;54700;51.796;10.956;2023-11-19T05:26:47;49.01;39.29;61.83;;
67900;Laerm;54700;51.796;10.956;2023-11-19T05:29:16;57.91;38.70;73.04;;
67900;Laerm;54700;51.796;10.956;2023-11-19T05:31:43;52.82;41.21;67.02;;
67900;Laerm;54700;51.796;10.956;2023-11-19T05:34:12;53.43;39.61;68.29;;
67900;Laerm;54700;51.796;10.956;2023-11-19T05:36:40;54.34;38.40;69.58;;
67900;Laerm;54700;51.796;10.956;2023-11-19T05:39:07;46.52;36.88;60.68;;
67900;Laerm;54700;51.796;10.956;2023-11-19T05:41:37;53.45;39.77;68.38;;
67900;Laerm;54700;51.796;10.956;2023-11-19T05:44:04;56.07;39.21;67.64;;
67900;Laerm;54700;51.796;10.956;2023-11-19T05:46:33;52.92;38.50;68.05;;
67900;Laerm;54700;51.796;10.956;2023-11-19T05:49:06;54.59;41.01;68.81;;
67900;Laerm;54700;51.796;10.956;2023-11-19T05:51:37;50.92;41.75;67.62;;
67900;Laerm;54700;51.796;10.956;2023-11-19T05:54:06;49.37;40.61;62.58;;
67900;Laerm;54700;51.796;10.956;2023-11-19T05:56:33;53.69;44.93;66.66;;
67900;Laerm;54700;51.796;10.956;2023-11-19T05:59:00;51.02;43.86;67.44;;
67900;Laerm;54700;51.796;10.956;2023-11-19T06:01:29;56.33;44.90;73.74;;
67900;Laerm;54700;51.796;10.956;2023-11-19T06:03:57;57.84;44.05;69.34;;
67900;Laerm;54700;51.796;10.956;2023-11-19T06:06:24;50.95;41.28;64.85;;
67900;Laerm;54700;51.796;10.956;2023-11-19T06:08:54;54.22;44.32;65.24;;
67900;Laerm;54700;51.796;10.956;2023-11-19T06:11:22;52.05;40.71;67.35;;
67900;Laerm;54700;51.796;10.956;2023-11-19T06:13:52;53.16;41.05;68.60;;
67900;Laerm;54700;51.796;10.956;2023-11-19T06:16:19;55.68;42.71;69.01;;
67900;Laerm;54700;51.796;10.956;2023-11-19T06:18:47;57.17;43.59;75.16;;
67900;Laerm;54700;51.796;10.956;2023-11-19T06:21:14;54.43;40.88;68.96;;
67900;Laerm;54700;51.796;10.956;2023-11-19T06:23:41;52.53;40.80;66.75;;
67900;Laerm;54700;51.796;10.956;2023-11-19T06:26:10;58.63;40.87;73.27;;
67900;Laerm;54700;51.796;10.956;2023-11-19T06:28:37;50.87;41.28;65.40;;
67900;Laerm;54700;51.796;10.956;2023-11-19T06:31:04;57.66;42.85;74.70;;
67900;Laerm;54700;51.796;10.956;2023-11-19T06:33:31;55.03;40.68;72.77;;
67900;Laerm;54700;51.796;10.956;2023-11-19T06:35:59;54.93;43.01;69.04;;
67900;Laerm;54700;51.796;10.956;2023-11-19T06:38:26;56.36;41.88;73.00;;
67900;Laerm;54700;51.796;10.956;2023-11-19T06:40:54;48.81;38.51;64.87;;
67900;Laerm;54700;51.796;10.956;2023-11-19T06:43:22;43.80;36.93;55.43;;
67900;Laerm;54700;51.796;10.956;2023-11-19T06:45:49;55.89;35.98;68.65;;
67900;Laerm;54700;51.796;10.956;2023-11-19T06:48:17;55.29;36.81;69.30;;
67900;Laerm;54700;51.796;10.956;2023-11-19T06:50:44;55.58;35.92;69.91;;
67900;Laerm;54700;51.796;10.956;2023-11-19T06:53:11;55.18;38.08;70.23;;
67900;Laerm;54700;51.796;10.956;2023-11-19T06:55:38;55.26;38.15;69.57;;
67900;Laerm;54700;51.796;10.956;2023-11-19T06:58:05;39.06;33.44;55.31;;
67900;Laerm;54700;51.796;10.956;2023-11-19T07:00:34;40.78;34.48;53.27;;
67900;Laerm;54700;51.796;10.956;2023-11-19T07:03:02;38.65;32.89;55.68;;
67900;Laerm;54700;51.796;10.956;2023-11-19T07:05:29;41.22;33.65;61.54;;
67900;Laerm;54700;51.796;10.956;2023-11-19T07:07:56;56.14;34.16;71.99;;
67900;Laerm;54700;51.796;10.956;2023-11-19T07:10:23;59.83;35.49;70.31;;
67900;Laerm;54700;51.796;10.956;2023-11-19T07:12:50;50.86;34.55;65.94;;
67900;Laerm;54700;51.796;10.956;2023-11-19T07:15:17;59.36;38.67;70.15;;
67900;Laerm;54700;51.796;10.956;2023-11-19T07:17:46;45.51;37.53;67.92;;
67900;Laerm;54700;51.796;10.956;2023-11-19T07:20:14;56.19;36.74;75.20;;
67900;Laerm;54700;51.796;10.956;2023-11-19T07:22:45;52.58;36.94;68.35;;
67900;Laerm;54700;51.796;10.956;2023-11-19T07:25:13;54.12;34.52;68.24;;
67900;Laerm;54700;51.796;10.956;2023-11-19T07:27:40;55.05;35.39;68.55;;
67900;Laerm;54700;51.796;10.956;2023-11-19T07:30:09;58.63;33.96;70.22;;
67900;Laerm;54700;51.796;10.956;2023-11-19T07:32:36;59.33;38.08;72.44;;
67900;Laerm;54700;51.796;10.956;2023-11-19T07:35:07;58.41;36.96;72.41;;
67900;Laerm;54700;51.796;10.956;2023-11-19T07:37:34;51.69;36.98;69.13;;
67900;Laerm;54700;51.796;10.956;2023-11-19T07:40:06;57.84;36.43;70.14;;
67900;Laerm;54700;51.796;10.956;2023-11-19T07:42:33;56.82;35.88;70.71;;
67900;Laerm;54700;51.796;10.956;2023-11-19T07:45:00;55.51;34.91;69.65;;
67900;Laerm;54700;51.796;10.956;2023-11-19T07:47:27;59.42;37.73;70.31;;
67900;Laerm;54700;51.796;10.956;2023-11-19T07:49:54;58.79;37.34;70.59;;
67900;Laerm;54700;51.796;10.956;2023-11-19T07:52:22;60.34;38.78;70.10;;
67900;Laerm;54700;51.796;10.956;2023-11-19T07:54:49;58.43;37.80;69.03;;
67900;Laerm;54700;51.796;10.956;2023-11-19T07:57:16;57.33;34.33;67.65;;
67900;Laerm;54700;51.796;10.956;2023-11-19T07:59:43;60.43;37.86;72.51;;
67900;Laerm;54700;51.796;10.956;2023-11-19T08:02:09;56.27;34.54;70.60;;
67900;Laerm;54700;51.796;10.956;2023-11-19T08:04:36;62.36;39.18;71.31;;
67900;Laerm;54700;51.796;10.956;2023-11-19T08:07:05;58.49;37.06;70.95;;
67900;Laerm;54700;51.796;10.956;2023-11-19T08:09:33;58.00;35.00;72.18;;
67900;Laerm;54700;51.796;10.956;2023-11-19T08:12:00;58.46;37.68;69.55;;
67900;Laerm;54700;51.796;10.956;2023-11-19T08:14:27;58.63;32.30;70.10;;
67900;Laerm;54700;51.796;10.956;2023-11-19T08:16:54;57.58;35.26;68.87;;
67900;Laerm;54700;51.796;10.956;2023-11-19T08:19:21;58.13;33.48;71.29;;
67900;Laerm;54700;51.796;10.956;2023-11-19T08:21:48;61.38;33.22;71.65;;
67900;Laerm;54700;51.796;10.956;2023-11-19T08:24:15;58.24;35.47;72.46;;
67900;Laerm;54700;51.796;10.956;2023-11-19T08:26:43;60.75;35.79;73.29;;
67900;Laerm;54700;51.796;10.956;2023-11-19T08:29:10;60.17;34.42;71.32;;
67900;Laerm;54700;51.796;10.956;2023-11-19T08:31:37;59.53;38.84;70.98;;
67900;Laerm;54700;51.796;10.956;2023-11-19T08:34:04;57.51;35.75;70.55;;
67900;Laerm;54700;51.796;10.956;2023-11-19T08:36:34;63.09;34.13;71.57;;
67900;Laerm;54700;51.796;10.956;2023-11-19T08:39:01;58.19;38.29;69.60;;
67900;Laerm;54700;51.796;10.956;2023-11-19T08:41:28;60.71;36.25;72.75;;
67900;Laerm;54700;51.796;10.956;2023-11-19T08:43:57;60.27;36.45;69.82;;
67900;Laerm;54700;51.796;10.956;2023-11-19T08:46:24;60.82;38.04;70.60;;
67900;Laerm;54700;51.796;10.956;2023-11-19T08:48:54;62.25;37.78;72.51;;
67900;Laerm;54700;51.796;10.956;2023-11-19T08:51:23;57.03;35.64;68.86;;
67900;Laerm;54700;51.796;10.956;2023-11-19T08:53:52;57.63;37.77;72.87;;
67900;Laerm;54700;51.796;10.956;2023-11-19T08:56:19;59.22;37.89;70.65;;
67900;Laerm;54700;51.796;10.956;2023-11-19T08:58:46;59.91;39.62;71.11;;
67900;Laerm;54700;51.796;10.956;2023-11-19T09:01:17;57.16;37.67;70.35;;
67900;Laerm;54700;51.796;10.956;2023-11-19T09:03:44;59.86;42.09;83.63;;
67900;Laerm;54700;51.796;10.956;2023-11-19T09:06:11;60.94;44.96;76.04;;
67900;Laerm;54700;51.796;10.956;2023-11-19T09:08:38;59.76;42.03;69.36;;
67900;Laerm;54700;51.796;10.956;2023-11-19T09:11:07;60.83;39.41;70.50;;
67900;Laerm;54700;51.796;10.956;2023-11-19T09:13:35;60.82;40.84;71.34;;
67900;Laerm;54700;51.796;10.956;2023-11-19T09:16:02;61.23;42.46;70.15;;
67900;Laerm;54700;51.796;10.956;2023-11-19T09:18:30;62.09;45.39;72.88;;
67900;Laerm;54700;51.796;10.956;2023-11-19T09:20:59;59.36;40.39;68.07;;
67900;Laerm;54700;51.796;10.956;2023-11-19T09:23:26;61.26;40.10;72.00;;
67900;Laerm;54700;51.796;10.956;2023-11-19T09:25:54;62.01;42.96;72.86;;
67900;Laerm;54700;51.796;10.956;2023-11-19T09:28:22;59.23;41.14;71.37;;
67900;Laerm;54700;51.796;10.956;2023-11-19T09:30:49;60.18;44.80;70.73;;
67900;Laerm;54700;51.796;10.956;2023-11-19T09:33:16;60.85;41.76;70.43;;
67900;Laerm;54700;51.796;10.956;2023-11-19T09:35:44;61.06;41.27;70.11;;
67900;Laerm;54700;51.796;10.956;2023-11-19T09:38:11;60.27;41.35;69.96;;
67900;Laerm;54700;51.796;10.956;2023-11-19T09:40:38;59.47;42.84;69.32;;
67900;Laerm;54700;51.796;10.956;2023-11-19T09:43:05;58.65;39.74;71.82;;
67900;Laerm;54700;51.796;10.956;2023-11-19T09:45:42;59.37;36.87;69.41;;
67900;Laerm;54700;51.796;10.956;2023-11-19T09:48:13;58.97;36.79;71.07;;
67900;Laerm;54700;51.796;10.956;2023-11-19T09:50:40;60.59;39.26;70.54;;
67900;Laerm;54700;51.796;10.956;2023-11-19T09:53:09;62.08;39.19;74.53;;
67900;Laerm;54700;51.796;10.956;2023-11-19T09:55:36;51.74;35.52;63.88;;
67900;Laerm;54700;51.796;10.956;2023-11-19T09:58:03;57.29;35.86;68.94;;
67900;Laerm;54700;51.796;10.956;2023-11-19T10:00:32;62.99;37.51;74.00;;
67900;Laerm;54700;51.796;10.956;2023-11-19T10:03:00;59.66;41.30;69.74;;
67900;Laerm;54700;51.796;10.956;2023-11-19T10:05:27;58.25;36.73;68.82;;
67900;Laerm;54700;51.796;10.956;2023-11-19T10:07:54;59.05;38.04;72.82;;
67900;Laerm;54700;51.796;10.956;2023-11-19T10:10:23;59.93;37.84;69.97;;
67900;Laerm;54700;51.796;10.956;2023-11-19T10:12:51;58.84;42.22;69.35;;
67900;Laerm;54700;51.796;10.956;2023-11-19T10:15:20;61.49;39.87;73.51;;
67900;Laerm;54700;51.796;10.956;2023-11-19T10:17:48;62.85;44.46;73.29;;
67900;Laerm;54700;51.796;10.956;2023-11-19T10:20:15;60.08;41.92;71.71;;
67900;Laerm;54700;51.796;10.956;2023-11-19T10:22:42;61.64;40.54;73.33;;
67900;Laerm;54700;51.796;10.956;2023-11-19T10:25:23;59.59;41.45;70.65;;
67900;Laerm;54700;51.796;10.956;2023-11-19T10:27:50;60.38;41.66;73.83;;
67900;Laerm;54700;51.796;10.956;2023-11-19T10:30:18;58.95;38.93;70.62;;
67900;Laerm;54700;51.796;10.956;2023-11-19T10:32:45;61.36;41.34;69.39;;
67900;Laerm;54700;51.796;10.956;2023-11-19T10:35:12;57.30;38.03;71.52;;
67900;Laerm;54700;51.796;10.956;2023-11-19T10:37:39;61.70;40.61;70.63;;
67900;Laerm;54700;51.796;10.956;2023-11-19T10:40:07;60.06;40.15;72.11;;
67900;Laerm;54700;51.796;10.956;2023-11-19T10:42:37;58.98;39.58;69.14;;
67900;Laerm;54700;51.796;10.956;2023-11-19T10:45:04;57.33;37.33;69.88;;
67900;Laerm;54700;51.796;10.956;2023-11-19T10:47:34;60.21;40.40;69.66;;
67900;Laerm;54700;51.796;10.956;2023-11-19T10:50:02;61.19;45.84;70.85;;
67900;Laerm;54700;51.796;10.956;2023-11-19T10:52:29;59.77;42.67;69.21;;
67900;Laerm;54700;51.796;10.956;2023-11-19T10:54:59;58.89;40.98;71.13;;
67900;Laerm;54700;51.796;10.956;2023-11-19T10:57:29;62.66;42.68;71.44;;
67900;Laerm;54700;51.796;10.956;2023-11-19T11:00:01;60.83;43.32;73.30;;
67900;Laerm;54700;51.796;10.956;2023-11-19T11:02:40;61.56;41.12;72.62;;
67900;Laerm;54700;51.796;10.956;2023-11-19T11:05:08;59.47;38.85;70.62;;
67900;Laerm;54700;51.796;10.956;2023-11-19T11:07:35;59.45;40.81;70.00;;
67900;Laerm;54700;51.796;10.956;2023-11-19T11:10:03;61.08;38.87;70.62;;
67900;Laerm;54700;51.796;10.956;2023-11-19T11:12:33;59.45;38.44;72.90;;
67900;Laerm;54700;51.796;10.956;2023-11-19T11:15:04;59.23;36.43;69.17;;
67900;Laerm;54700;51.796;10.956;2023-11-19T11:17:33;61.71;35.68;71.76;;
67900;Laerm;54700;51.796;10.956;2023-11-19T11:20:01;56.47;35.20;69.09;;
67900;Laerm;54700;51.796;10.956;2023-11-19T11:22:28;62.15;36.29;70.23;;
67900;Laerm;54700;51.796;10.956;2023-11-19T11:25:22;61.89;38.67;75.24;;
67900;Laerm;54700;51.796;10.956;2023-11-19T11:28:21;60.67;39.23;70.18;;
67900;Laerm;54700;51.796;10.956;2023-11-19T11:31:08;60.69;37.08;74.71;;
67900;Laerm;54700;51.796;10.956;2023-11-19T11:34:04;60.87;36.78;74.08;;
67900;Laerm;54700;51.796;10.956;2023-11-19T11:36:43;53.64;36.11;67.29;;
67900;Laerm;54700;51.796;10.956;2023-11-19T11:39:13;60.78;40.74;72.63;;
67900;Laerm;54700;51.796;10.956;2023-11-19T11:41:40;59.46;40.35;68.87;;
67900;Laerm;54700;51.796;10.956;2023-11-19T11:44:07;59.62;40.12;70.72;;
67900;Laerm;54700;51.796;10.956;2023-11-19T11:46:57;58.41;39.75;70.04;;
67900;Laerm;54700;51.796;10.956;2023-11-19T11:49:28;60.34;39.67;75.16;;
67900;Laerm;54700;51.796;10.956;2023-11-19T11:52:02;56.30;39.77;68.02;;
67900;Laerm;54700;51.796;10.956;2023-11-19T11:54:32;58.09;38.81;68.63;;
67900;Laerm;54700;51.796;10.956;2023-11-19T11:57:07;49.96;39.19;63.72;;
67900;Laerm;54700;51.796;10.956;2023-11-19T11:59:50;57.81;39.90;67.73;;
67900;Laerm;54700;51.796;10.956;2023-11-19T12:02:20;60.59;41.88;69.88;;
67900;Laerm;54700;51.796;10.956;2023-11-19T12:04:49;58.52;38.45;70.98;;
67900;Laerm;54700;51.796;10.956;2023-11-19T12:07:18;59.22;39.31;71.07;;
67900;Laerm;54700;51.796;10.956;2023-11-19T12:09:49;60.10;40.91;74.34;;
67900;Laerm;54700;51.796;10.956;2023-11-19T12:12:19;58.39;42.39;68.89;;
67900;Laerm;54700;51.796;10.956;2023-11-19T12:15:02;55.99;39.56;73.68;;
67900;Laerm;54700;51.796;10.956;2023-11-19T12:17:42;59.69;41.17;73.73;;
67900;Laerm;54700;51.796;10.956;2023-11-19T12:20:11;61.63;45.95;71.29;;
67900;Laerm;54700;51.796;10.956;2023-11-19T12:22:39;59.19;42.46;70.83;;
67900;Laerm;54700;51.796;10.956;2023-11-19T12:25:07;58.84;42.23;79.42;;
67900;Laerm;54700;51.796;10.956;2023-11-19T12:27:34;57.47;44.01;71.09;;
67900;Laerm;54700;51.796;10.956;2023-11-19T12:30:01;61.85;43.78;74.71;;
67900;Laerm;54700;51.796;10.956;2023-11-19T12:32:39;61.55;39.97;69.44;;
67900;Laerm;54700;51.796;10.956;2023-11-19T12:35:07;53.65;40.70;68.72;;
67900;Laerm;54700;51.796;10.956;2023-11-19T12:37:41;63.01;44.57;79.83;;
67900;Laerm;54700;51.796;10.956;2023-11-19T12:40:15;59.27;46.46;70.67;;
67900;Laerm;54700;51.796;10.956;2023-11-19T12:42:43;58.86;41.92;71.94;;
67900;Laerm;54700;51.796;10.956;2023-11-19T12:45:11;60.10;42.95;74.58;;
67900;Laerm;54700;51.796;10.956;2023-11-19T12:47:40;60.94;40.65;71.56;;
67900;Laerm;54700;51.796;10.956;2023-11-19T12:50:08;68.33;38.54;88.14;;
67900;Laerm;54700;51.796;10.956;2023-11-19T12:52:35;59.12;39.40;70.49;;
67900;Laerm;54700;51.796;10.956;2023-11-19T12:55:03;58.58;36.39;69.92;;
67900;Laerm;54700;51.796;10.956;2023-11-19T12:57:38;60.34;39.57;73.21;;
67900;Laerm;54700;51.796;10.956;2023-11-19T13:00:07;60.35;40.18;71.53;;
67900;Laerm;54700;51.796;10.956;2023-11-19T13:02:48;61.92;39.92;70.92;;
67900;Laerm;54700;51.796;10.956;2023-11-19T13:05:26;53.72;38.01;66.77;;
67900;Laerm;54700;51.796;10.956;2023-11-19T13:08:00;59.30;39.58;71.86;;
67900;Laerm;54700;51.796;10.956;2023-11-19T13:10:28;58.65;39.87;70.82;;
67900;Laerm;54700;51.796;10.956;2023-11-19T13:13:02;63.66;43.41;72.98;;
67900;Laerm;54700;51.796;10.956;2023-11-19T13:15:30;59.83;41.94;73.83;;
67900;Laerm;54700;51.796;10.956;2023-11-19T13:17:59;59.39;41.30;69.74;;
67900;Laerm;54700;51.796;10.956;2023-11-19T13:20:26;60.03;39.49;71.13;;
67900;Laerm;54700;51.796;10.956;2023-11-19T13:22:55;61.16;45.56;71.61;;
67900;Laerm;54700;51.796;10.956;2023-11-19T13:25:22;61.40;43.20;70.87;;
67900;Laerm;54700;51.796;10.956;2023-11-19T13:27:48;57.04;38.00;68.74;;
67900;Laerm;54700;51.796;10.956;2023-11-19T13:30:16;62.66;42.24;71.73;;
67900;Laerm;54700;51.796;10.956;2023-11-19T13:32:43;63.46;43.16;71.29;;
67900;Laerm;54700;51.796;10.956;2023-11-19T13:35:13;61.96;43.87;71.42;;
67900;Laerm;54700;51.796;10.956;2023-11-19T13:37:40;60.65;41.29;69.06;;
67900;Laerm;54700;51.796;10.956;2023-11-19T13:40:07;59.80;39.14;71.36;;